sensor_id;sensor_type;location;lat;lon;timestamp;temperature;humidity
76172;DHT22;64929;51.178;4.138;2023-06-19T00:01:56;20.40;85.40
76172;DHT22;64929;51.178;4.138;2023-06-19T00:04:22;20.50;85.10
76172;DHT22;64929;51.178;4.138;2023-06-19T00:06:48;20.50;84.80
76172;DHT22;64929;51.178;4.138;2023-06-19T00:09:14;20.60;84.80
76172;DHT22;64929;51.178;4.138;2023-06-19T00:11:40;20.40;85.70
76172;DHT22;64929;51.178;4.138;2023-06-19T00:14:06;20.50;85.60
76172;DHT22;64929;51.178;4.138;2023-06-19T00:16:32;20.50;85.60
76172;DHT22;64929;51.178;4.138;2023-06-19T00:18:58;20.60;85.20
76172;DHT22;64929;51.178;4.138;2023-06-19T00:21:24;20.60;85.30
76172;DHT22;64929;51.178;4.138;2023-06-19T00:23:51;20.60;85.20
76172;DHT22;64929;51.178;4.138;2023-06-19T00:26:17;20.50;85.80
76172;DHT22;64929;51.178;4.138;2023-06-19T00:28:44;20.50;86.00
76172;DHT22;64929;51.178;4.138;2023-06-19T00:31:13;20.50;86.20
76172;DHT22;64929;51.178;4.138;2023-06-19T00:33:40;20.50;86.30
76172;DHT22;64929;51.178;4.138;2023-06-19T00:36:13;20.50;86.70
76172;DHT22;64929;51.178;4.138;2023-06-19T00:38:40;20.50;86.60
76172;DHT22;64929;51.178;4.138;2023-06-19T00:41:06;20.50;86.60
76172;DHT22;64929;51.178;4.138;2023-06-19T00:43:32;20.50;87.10
76172;DHT22;64929;51.178;4.138;2023-06-19T00:45:59;20.30;87.90
76172;DHT22;64929;51.178;4.138;2023-06-19T00:48:28;20.30;88.20
76172;DHT22;64929;51.178;4.138;2023-06-19T00:50:57;20.30;88.20
76172;DHT22;64929;51.178;4.138;2023-06-19T00:53:23;20.40;87.80
76172;DHT22;64929;51.178;4.138;2023-06-19T00:55:50;20.50;88.00
76172;DHT22;64929;51.178;4.138;2023-06-19T00:58:17;20.60;87.20
76172;DHT22;64929;51.178;4.138;2023-06-19T01:00:44;20.70;86.90
76172;DHT22;64929;51.178;4.138;2023-06-19T01:03:10;20.50;87.30
76172;DHT22;64929;51.178;4.138;2023-06-19T01:05:35;20.60;87.50
76172;DHT22;64929;51.178;4.138;2023-06-19T01:10:46;20.50;88.20
76172;DHT22;64929;51.178;4.138;2023-06-19T01:13:22;20.60;87.90
76172;DHT22;64929;51.178;4.138;2023-06-19T01:15:50;20.60;87.80
76172;DHT22;64929;51.178;4.138;2023-06-19T01:18:16;20.50;88.20
76172;DHT22;64929;51.178;4.138;2023-06-19T01:20:43;20.50;89.00
76172;DHT22;64929;51.178;4.138;2023-06-19T01:23:10;20.40;89.50
76172;DHT22;64929;51.178;4.138;2023-06-19T01:25:36;20.40;89.50
76172;DHT22;64929;51.178;4.138;2023-06-19T01:28:03;20.50;88.90
76172;DHT22;64929;51.178;4.138;2023-06-19T01:30:31;20.60;88.80
76172;DHT22;64929;51.178;4.138;2023-06-19T01:33:02;20.70;88.30
76172;DHT22;64929;51.178;4.138;2023-06-19T01:35:34;20.70;88.40
76172;DHT22;64929;51.178;4.138;2023-06-19T01:38:01;20.70;88.60
76172;DHT22;64929;51.178;4.138;2023-06-19T01:40:28;20.70;88.70
76172;DHT22;64929;51.178;4.138;2023-06-19T01:42:58;20.80;88.60
76172;DHT22;64929;51.178;4.138;2023-06-19T01:45:28;20.80;88.50
76172;DHT22;64929;51.178;4.138;2023-06-19T01:47:54;20.90;88.00
76172;DHT22;64929;51.178;4.138;2023-06-19T01:50:22;20.90;87.90
76172;DHT22;64929;51.178;4.138;2023-06-19T01:52:48;21.00;87.60
76172;DHT22;64929;51.178;4.138;2023-06-19T01:55:14;20.90;87.50
76172;DHT22;64929;51.178;4.138;2023-06-19T01:57:40;20.90;87.50
76172;DHT22;64929;51.178;4.138;2023-06-19T02:00:06;20.80;88.20
76172;DHT22;64929;51.178;4.138;2023-06-19T02:02:36;20.80;88.40
76172;DHT22;64929;51.178;4.138;2023-06-19T02:05:02;20.80;87.70
76172;DHT22;64929;51.178;4.138;2023-06-19T02:07:28;20.80;87.90
76172;DHT22;64929;51.178;4.138;2023-06-19T02:09:53;20.80;87.90
76172;DHT22;64929;51.178;4.138;2023-06-19T02:12:19;20.80;87.80
76172;DHT22;64929;51.178;4.138;2023-06-19T02:14:45;20.90;87.60
76172;DHT22;64929;51.178;4.138;2023-06-19T02:17:11;20.80;87.90
76172;DHT22;64929;51.178;4.138;2023-06-19T02:19:36;20.90;88.00
76172;DHT22;64929;51.178;4.138;2023-06-19T02:22:02;21.00;87.60
76172;DHT22;64929;51.178;4.138;2023-06-19T02:24:28;21.10;87.00
76172;DHT22;64929;51.178;4.138;2023-06-19T02:26:53;21.00;87.30
76172;DHT22;64929;51.178;4.138;2023-06-19T02:29:19;21.00;87.10
76172;DHT22;64929;51.178;4.138;2023-06-19T02:31:45;21.10;86.80
76172;DHT22;64929;51.178;4.138;2023-06-19T02:34:11;20.90;87.50
76172;DHT22;64929;51.178;4.138;2023-06-19T02:36:37;20.80;87.80
76172;DHT22;64929;51.178;4.138;2023-06-19T02:39:05;20.80;87.80
76172;DHT22;64929;51.178;4.138;2023-06-19T02:41:32;20.90;87.40
76172;DHT22;64929;51.178;4.138;2023-06-19T02:43:58;20.70;87.50
76172;DHT22;64929;51.178;4.138;2023-06-19T02:46:23;20.70;87.10
76172;DHT22;64929;51.178;4.138;2023-06-19T02:48:49;20.80;86.40
76172;DHT22;64929;51.178;4.138;2023-06-19T02:51:15;20.80;86.10
76172;DHT22;64929;51.178;4.138;2023-06-19T02:53:41;20.70;85.70
76172;DHT22;64929;51.178;4.138;2023-06-19T02:56:07;20.70;85.60
76172;DHT22;64929;51.178;4.138;2023-06-19T02:58:33;20.70;84.50
76172;DHT22;64929;51.178;4.138;2023-06-19T03:01:00;20.50;84.60
76172;DHT22;64929;51.178;4.138;2023-06-19T03:03:25;20.40;85.00
76172;DHT22;64929;51.178;4.138;2023-06-19T03:05:51;20.60;84.30
76172;DHT22;64929;51.178;4.138;2023-06-19T03:08:17;20.40;84.30
76172;DHT22;64929;51.178;4.138;2023-06-19T03:10:43;20.50;84.00
76172;DHT22;64929;51.178;4.138;2023-06-19T03:13:08;20.40;84.20
76172;DHT22;64929;51.178;4.138;2023-06-19T03:15:34;20.40;84.40
76172;DHT22;64929;51.178;4.138;2023-06-19T03:18:00;20.40;84.40
76172;DHT22;64929;51.178;4.138;2023-06-19T03:20:28;20.30;84.30
76172;DHT22;64929;51.178;4.138;2023-06-19T03:22:54;20.20;84.60
76172;DHT22;64929;51.178;4.138;2023-06-19T03:25:20;20.20;84.80
76172;DHT22;64929;51.178;4.138;2023-06-19T03:27:45;20.30;83.80
76172;DHT22;64929;51.178;4.138;2023-06-19T03:30:11;20.20;83.70
76172;DHT22;64929;51.178;4.138;2023-06-19T03:32:38;20.20;84.40
76172;DHT22;64929;51.178;4.138;2023-06-19T03:35:04;20.30;84.00
76172;DHT22;64929;51.178;4.138;2023-06-19T03:37:30;20.30;83.00
76172;DHT22;64929;51.178;4.138;2023-06-19T03:39:58;20.20;83.00
76172;DHT22;64929;51.178;4.138;2023-06-19T03:42:23;20.20;83.10
76172;DHT22;64929;51.178;4.138;2023-06-19T03:44:49;20.40;82.00
76172;DHT22;64929;51.178;4.138;2023-06-19T03:47:15;20.30;81.70
76172;DHT22;64929;51.178;4.138;2023-06-19T03:49:41;20.20;82.50
76172;DHT22;64929;51.178;4.138;2023-06-19T03:52:08;20.10;82.80
76172;DHT22;64929;51.178;4.138;2023-06-19T03:54:33;20.10;83.40
76172;DHT22;64929;51.178;4.138;2023-06-19T03:56:59;20.20;82.90
76172;DHT22;64929;51.178;4.138;2023-06-19T03:59:26;20.10;82.70
76172;DHT22;64929;51.178;4.138;2023-06-19T04:01:51;20.00;83.00
76172;DHT22;64929;51.178;4.138;2023-06-19T04:04:17;20.00;83.40
76172;DHT22;64929;51.178;4.138;2023-06-19T04:06:43;20.00;83.40
76172;DHT22;64929;51.178;4.138;2023-06-19T04:09:08;19.90;83.80
76172;DHT22;64929;51.178;4.138;2023-06-19T04:11:34;19.90;83.90
76172;DHT22;64929;51.178;4.138;2023-06-19T04:14:00;19.80;84.10
76172;DHT22;64929;51.178;4.138;2023-06-19T04:16:26;19.90;83.90
76172;DHT22;64929;51.178;4.138;2023-06-19T04:18:51;20.10;83.10
76172;DHT22;64929;51.178;4.138;2023-06-19T04:21:17;20.00;83.10
76172;DHT22;64929;51.178;4.138;2023-06-19T04:23:43;20.00;83.60
76172;DHT22;64929;51.178;4.138;2023-06-19T04:26:08;19.90;84.00
76172;DHT22;64929;51.178;4.138;2023-06-19T04:28:34;19.90;84.00
76172;DHT22;64929;51.178;4.138;2023-06-19T04:31:00;20.00;83.70
76172;DHT22;64929;51.178;4.138;2023-06-19T04:33:29;19.90;83.80
76172;DHT22;64929;51.178;4.138;2023-06-19T04:35:55;19.70;84.50
76172;DHT22;64929;51.178;4.138;2023-06-19T04:38:21;19.90;83.70
76172;DHT22;64929;51.178;4.138;2023-06-19T04:40:53;19.70;83.80
76172;DHT22;64929;51.178;4.138;2023-06-19T04:43:19;19.80;83.50
76172;DHT22;64929;51.178;4.138;2023-06-19T04:45:45;19.90;83.60
76172;DHT22;64929;51.178;4.138;2023-06-19T04:48:10;19.90;83.00
76172;DHT22;64929;51.178;4.138;2023-06-19T04:50:37;19.80;83.30
76172;DHT22;64929;51.178;4.138;2023-06-19T04:53:02;19.70;83.30
76172;DHT22;64929;51.178;4.138;2023-06-19T04:55:28;19.80;83.30
76172;DHT22;64929;51.178;4.138;2023-06-19T04:57:54;19.90;82.90
76172;DHT22;64929;51.178;4.138;2023-06-19T05:00:20;19.90;82.50
76172;DHT22;64929;51.178;4.138;2023-06-19T05:02:48;19.80;82.90
76172;DHT22;64929;51.178;4.138;2023-06-19T05:05:14;19.70;82.90
76172;DHT22;64929;51.178;4.138;2023-06-19T05:07:40;19.70;83.50
76172;DHT22;64929;51.178;4.138;2023-06-19T05:10:06;20.00;82.30
76172;DHT22;64929;51.178;4.138;2023-06-19T05:12:34;19.90;82.80
76172;DHT22;64929;51.178;4.138;2023-06-19T05:15:00;19.90;83.00
76172;DHT22;64929;51.178;4.138;2023-06-19T05:17:26;20.00;81.80
76172;DHT22;64929;51.178;4.138;2023-06-19T05:19:52;19.90;82.00
76172;DHT22;64929;51.178;4.138;2023-06-19T05:22:18;19.70;82.30
76172;DHT22;64929;51.178;4.138;2023-06-19T05:24:44;19.60;83.30
76172;DHT22;64929;51.178;4.138;2023-06-19T05:27:10;19.70;83.00
76172;DHT22;64929;51.178;4.138;2023-06-19T05:29:36;19.90;83.30
76172;DHT22;64929;51.178;4.138;2023-06-19T05:32:02;20.10;82.00
76172;DHT22;64929;51.178;4.138;2023-06-19T05:34:28;20.20;80.70
76172;DHT22;64929;51.178;4.138;2023-06-19T05:36:54;20.40;78.90
76172;DHT22;64929;51.178;4.138;2023-06-19T05:39:19;20.40;78.70
76172;DHT22;64929;51.178;4.138;2023-06-19T05:41:45;20.50;77.90
76172;DHT22;64929;51.178;4.138;2023-06-19T05:44:11;20.50;77.20
76172;DHT22;64929;51.178;4.138;2023-06-19T05:46:41;20.40;78.10
76172;DHT22;64929;51.178;4.138;2023-06-19T05:49:07;20.30;78.80
76172;DHT22;64929;51.178;4.138;2023-06-19T05:51:32;20.30;78.70
76172;DHT22;64929;51.178;4.138;2023-06-19T05:53:58;20.40;78.10
76172;DHT22;64929;51.178;4.138;2023-06-19T05:56:29;20.50;77.60
76172;DHT22;64929;51.178;4.138;2023-06-19T05:58:55;20.40;77.50
76172;DHT22;64929;51.178;4.138;2023-06-19T06:01:20;20.30;76.80
76172;DHT22;64929;51.178;4.138;2023-06-19T06:03:46;20.20;76.90
76172;DHT22;64929;51.178;4.138;2023-06-19T06:06:12;19.90;78.00
76172;DHT22;64929;51.178;4.138;2023-06-19T06:08:37;19.80;78.60
76172;DHT22;64929;51.178;4.138;2023-06-19T06:11:03;19.80;78.70
76172;DHT22;64929;51.178;4.138;2023-06-19T06:13:29;19.70;79.40
76172;DHT22;64929;51.178;4.138;2023-06-19T06:15:54;19.70;79.50
76172;DHT22;64929;51.178;4.138;2023-06-19T06:18:20;19.90;79.20
76172;DHT22;64929;51.178;4.138;2023-06-19T06:20:46;19.90;78.30
76172;DHT22;64929;51.178;4.138;2023-06-19T06:23:11;20.10;77.60
76172;DHT22;64929;51.178;4.138;2023-06-19T06:25:37;20.20;78.00
76172;DHT22;64929;51.178;4.138;2023-06-19T06:28:03;20.30;77.70
76172;DHT22;64929;51.178;4.138;2023-06-19T06:30:29;20.10;78.00
76172;DHT22;64929;51.178;4.138;2023-06-19T06:32:54;20.00;77.90
76172;DHT22;64929;51.178;4.138;2023-06-19T06:35:20;19.90;78.40
76172;DHT22;64929;51.178;4.138;2023-06-19T06:37:46;20.10;78.20
76172;DHT22;64929;51.178;4.138;2023-06-19T06:40:15;20.40;77.40
76172;DHT22;64929;51.178;4.138;2023-06-19T06:42:40;20.40;76.30
76172;DHT22;64929;51.178;4.138;2023-06-19T06:45:07;20.20;76.90
76172;DHT22;64929;51.178;4.138;2023-06-19T06:47:34;20.30;76.70
76172;DHT22;64929;51.178;4.138;2023-06-19T06:50:00;20.40;76.50
76172;DHT22;64929;51.178;4.138;2023-06-19T06:52:26;20.30;77.10
76172;DHT22;64929;51.178;4.138;2023-06-19T06:54:53;20.20;76.60
76172;DHT22;64929;51.178;4.138;2023-06-19T06:57:19;20.00;77.60
76172;DHT22;64929;51.178;4.138;2023-06-19T06:59:45;19.90;78.40
76172;DHT22;64929;51.178;4.138;2023-06-19T07:02:10;20.00;78.00
76172;DHT22;64929;51.178;4.138;2023-06-19T07:04:36;19.80;78.50
76172;DHT22;64929;51.178;4.138;2023-06-19T07:07:02;19.90;77.90
76172;DHT22;64929;51.178;4.138;2023-06-19T07:09:29;20.00;78.40
76172;DHT22;64929;51.178;4.138;2023-06-19T07:11:55;20.10;77.40
76172;DHT22;64929;51.178;4.138;2023-06-19T07:14:22;20.30;77.60
76172;DHT22;64929;51.178;4.138;2023-06-19T07:16:48;20.20;77.40
76172;DHT22;64929;51.178;4.138;2023-06-19T07:19:14;20.10;77.50
76172;DHT22;64929;51.178;4.138;2023-06-19T07:21:40;20.30;77.30
76172;DHT22;64929;51.178;4.138;2023-06-19T07:24:06;20.20;78.10
76172;DHT22;64929;51.178;4.138;2023-06-19T07:26:32;20.50;77.00
76172;DHT22;64929;51.178;4.138;2023-06-19T07:28:57;20.50;76.10
76172;DHT22;64929;51.178;4.138;2023-06-19T07:31:23;20.40;76.30
76172;DHT22;64929;51.178;4.138;2023-06-19T07:33:49;20.50;76.50
76172;DHT22;64929;51.178;4.138;2023-06-19T07:36:15;20.50;75.70
76172;DHT22;64929;51.178;4.138;2023-06-19T07:38:45;20.40;75.70
76172;DHT22;64929;51.178;4.138;2023-06-19T07:41:11;20.40;76.10
76172;DHT22;64929;51.178;4.138;2023-06-19T07:43:37;20.30;76.20
76172;DHT22;64929;51.178;4.138;2023-06-19T07:46:03;20.30;76.50
76172;DHT22;64929;51.178;4.138;2023-06-19T07:48:29;20.20;77.60
76172;DHT22;64929;51.178;4.138;2023-06-19T07:50:55;20.50;76.90
76172;DHT22;64929;51.178;4.138;2023-06-19T07:53:21;20.80;77.40
76172;DHT22;64929;51.178;4.138;2023-06-19T07:55:47;21.00;74.40
76172;DHT22;64929;51.178;4.138;2023-06-19T07:58:12;21.10;74.40
76172;DHT22;64929;51.178;4.138;2023-06-19T08:00:38;21.10;74.10
76172;DHT22;64929;51.178;4.138;2023-06-19T08:03:05;21.00;74.30
76172;DHT22;64929;51.178;4.138;2023-06-19T08:05:31;20.90;73.40
76172;DHT22;64929;51.178;4.138;2023-06-19T08:07:58;20.90;74.20
76172;DHT22;64929;51.178;4.138;2023-06-19T08:10:24;21.20;74.00
76172;DHT22;64929;51.178;4.138;2023-06-19T08:12:49;21.50;73.10
76172;DHT22;64929;51.178;4.138;2023-06-19T08:15:15;21.40;72.20
76172;DHT22;64929;51.178;4.138;2023-06-19T08:17:41;21.50;72.80
76172;DHT22;64929;51.178;4.138;2023-06-19T08:20:08;21.30;72.10
76172;DHT22;64929;51.178;4.138;2023-06-19T08:22:35;21.20;72.70
76172;DHT22;64929;51.178;4.138;2023-06-19T08:25:02;21.10;72.70
76172;DHT22;64929;51.178;4.138;2023-06-19T08:27:28;20.70;74.40
76172;DHT22;64929;51.178;4.138;2023-06-19T08:29:53;20.70;75.90
76172;DHT22;64929;51.178;4.138;2023-06-19T08:32:19;20.80;74.50
76172;DHT22;64929;51.178;4.138;2023-06-19T08:34:45;20.80;74.40
76172;DHT22;64929;51.178;4.138;2023-06-19T08:37:11;20.90;74.10
76172;DHT22;64929;51.178;4.138;2023-06-19T08:39:36;20.80;74.10
76172;DHT22;64929;51.178;4.138;2023-06-19T08:42:06;21.00;74.30
76172;DHT22;64929;51.178;4.138;2023-06-19T08:44:33;21.20;73.80
76172;DHT22;64929;51.178;4.138;2023-06-19T08:47:01;21.40;73.70
76172;DHT22;64929;51.178;4.138;2023-06-19T08:49:29;21.50;72.80
76172;DHT22;64929;51.178;4.138;2023-06-19T08:51:55;21.70;73.20
76172;DHT22;64929;51.178;4.138;2023-06-19T08:54:21;21.70;72.80
76172;DHT22;64929;51.178;4.138;2023-06-19T08:56:48;21.60;73.00
76172;DHT22;64929;51.178;4.138;2023-06-19T08:59:18;21.90;72.90
76172;DHT22;64929;51.178;4.138;2023-06-19T09:01:50;21.80;73.00
76172;DHT22;64929;51.178;4.138;2023-06-19T09:04:24;21.70;72.70
76172;DHT22;64929;51.178;4.138;2023-06-19T09:09:17;21.90;72.00
76172;DHT22;64929;51.178;4.138;2023-06-19T09:11:43;22.00;71.50
76172;DHT22;64929;51.178;4.138;2023-06-19T09:14:10;22.20;71.30
76172;DHT22;64929;51.178;4.138;2023-06-19T09:16:41;22.20;71.60
76172;DHT22;64929;51.178;4.138;2023-06-19T09:19:07;22.40;71.50
76172;DHT22;64929;51.178;4.138;2023-06-19T09:21:36;22.70;70.80
76172;DHT22;64929;51.178;4.138;2023-06-19T09:24:08;22.90;69.00
76172;DHT22;64929;51.178;4.138;2023-06-19T09:26:34;23.10;69.80
76172;DHT22;64929;51.178;4.138;2023-06-19T09:29:18;23.10;68.60
76172;DHT22;64929;51.178;4.138;2023-06-19T09:31:44;23.00;69.80
76172;DHT22;64929;51.178;4.138;2023-06-19T09:34:10;23.20;68.90
76172;DHT22;64929;51.178;4.138;2023-06-19T09:36:36;23.00;68.70
76172;DHT22;64929;51.178;4.138;2023-06-19T09:39:03;22.90;68.80
76172;DHT22;64929;51.178;4.138;2023-06-19T09:41:32;22.70;69.20
76172;DHT22;64929;51.178;4.138;2023-06-19T09:43:59;22.80;69.50
76172;DHT22;64929;51.178;4.138;2023-06-19T09:46:30;22.40;69.80
76172;DHT22;64929;51.178;4.138;2023-06-19T09:49:00;22.50;69.60
76172;DHT22;64929;51.178;4.138;2023-06-19T09:51:41;22.30;71.30
76172;DHT22;64929;51.178;4.138;2023-06-19T09:54:08;22.60;71.00
76172;DHT22;64929;51.178;4.138;2023-06-19T09:56:35;22.60;70.10
76172;DHT22;64929;51.178;4.138;2023-06-19T09:59:03;22.40;70.30
76172;DHT22;64929;51.178;4.138;2023-06-19T10:01:31;22.70;70.40
76172;DHT22;64929;51.178;4.138;2023-06-19T10:04:06;23.20;69.60
76172;DHT22;64929;51.178;4.138;2023-06-19T10:06:32;23.10;68.10
76172;DHT22;64929;51.178;4.138;2023-06-19T10:09:07;23.10;69.70
76172;DHT22;64929;51.178;4.138;2023-06-19T10:11:50;23.30;68.40
76172;DHT22;64929;51.178;4.138;2023-06-19T10:14:22;23.30;68.50
76172;DHT22;64929;51.178;4.138;2023-06-19T10:16:50;23.40;69.80
76172;DHT22;64929;51.178;4.138;2023-06-19T10:19:17;23.50;67.80
76172;DHT22;64929;51.178;4.138;2023-06-19T10:21:52;23.70;66.80
76172;DHT22;64929;51.178;4.138;2023-06-19T10:24:19;23.50;66.60
76172;DHT22;64929;51.178;4.138;2023-06-19T10:26:59;23.60;67.50
76172;DHT22;64929;51.178;4.138;2023-06-19T10:29:26;23.70;67.70
76172;DHT22;64929;51.178;4.138;2023-06-19T10:31:56;23.70;68.10
76172;DHT22;64929;51.178;4.138;2023-06-19T10:34:32;23.60;66.60
76172;DHT22;64929;51.178;4.138;2023-06-19T10:36:58;23.50;67.10
76172;DHT22;64929;51.178;4.138;2023-06-19T10:39:24;23.80;66.00
76172;DHT22;64929;51.178;4.138;2023-06-19T10:41:50;24.10;66.70
76172;DHT22;64929;51.178;4.138;2023-06-19T10:44:16;23.90;65.40
76172;DHT22;64929;51.178;4.138;2023-06-19T10:46:42;24.00;65.10
76172;DHT22;64929;51.178;4.138;2023-06-19T10:49:08;23.90;65.50
76172;DHT22;64929;51.178;4.138;2023-06-19T10:51:39;23.90;65.90
76172;DHT22;64929;51.178;4.138;2023-06-19T10:54:05;23.80;65.70
76172;DHT22;64929;51.178;4.138;2023-06-19T10:56:31;24.10;63.70
76172;DHT22;64929;51.178;4.138;2023-06-19T10:59:02;23.90;64.90
76172;DHT22;64929;51.178;4.138;2023-06-19T11:01:45;24.10;63.30
76172;DHT22;64929;51.178;4.138;2023-06-19T11:04:14;24.40;63.10
76172;DHT22;64929;51.178;4.138;2023-06-19T11:06:41;24.50;64.20
76172;DHT22;64929;51.178;4.138;2023-06-19T11:09:09;24.60;63.90
76172;DHT22;64929;51.178;4.138;2023-06-19T11:11:44;24.70;62.30
76172;DHT22;64929;51.178;4.138;2023-06-19T11:14:11;24.60;62.30
76172;DHT22;64929;51.178;4.138;2023-06-19T11:16:43;24.60;61.90
76172;DHT22;64929;51.178;4.138;2023-06-19T11:19:20;24.50;63.00
76172;DHT22;64929;51.178;4.138;2023-06-19T11:21:48;24.50;61.90
76172;DHT22;64929;51.178;4.138;2023-06-19T11:24:14;24.70;62.80
76172;DHT22;64929;51.178;4.138;2023-06-19T11:26:42;24.70;61.60
76172;DHT22;64929;51.178;4.138;2023-06-19T11:29:22;24.80;62.00
76172;DHT22;64929;51.178;4.138;2023-06-19T11:31:49;24.80;60.30
76172;DHT22;64929;51.178;4.138;2023-06-19T11:34:16;24.60;60.50
76172;DHT22;64929;51.178;4.138;2023-06-19T11:36:43;24.50;60.20
76172;DHT22;64929;51.178;4.138;2023-06-19T11:39:14;24.80;62.00
76172;DHT22;64929;51.178;4.138;2023-06-19T11:41:41;25.00;60.60
76172;DHT22;64929;51.178;4.138;2023-06-19T11:44:08;25.20;60.30
76172;DHT22;64929;51.178;4.138;2023-06-19T11:46:37;25.20;58.90
76172;DHT22;64929;51.178;4.138;2023-06-19T11:49:17;25.30;59.50
76172;DHT22;64929;51.178;4.138;2023-06-19T11:51:46;25.60;59.80
76172;DHT22;64929;51.178;4.138;2023-06-19T11:54:12;25.50;58.20
76172;DHT22;64929;51.178;4.138;2023-06-19T11:56:40;25.60;56.40
76172;DHT22;64929;51.178;4.138;2023-06-19T11:59:06;25.50;57.80
76172;DHT22;64929;51.178;4.138;2023-06-19T12:01:32;25.50;56.90
76172;DHT22;64929;51.178;4.138;2023-06-19T12:03:59;25.50;56.10
76172;DHT22;64929;51.178;4.138;2023-06-19T12:06:25;25.60;57.20
76172;DHT22;64929;51.178;4.138;2023-06-19T12:08:51;25.70;57.30
76172;DHT22;64929;51.178;4.138;2023-06-19T12:11:17;25.50;57.40
76172;DHT22;64929;51.178;4.138;2023-06-19T12:13:43;25.60;56.60
76172;DHT22;64929;51.178;4.138;2023-06-19T12:16:10;26.00;57.60
76172;DHT22;64929;51.178;4.138;2023-06-19T12:18:36;26.30;54.80
76172;DHT22;64929;51.178;4.138;2023-06-19T12:21:03;26.20;55.30
76172;DHT22;64929;51.178;4.138;2023-06-19T12:23:29;26.40;55.10
76172;DHT22;64929;51.178;4.138;2023-06-19T12:25:55;26.30;55.10
76172;DHT22;64929;51.178;4.138;2023-06-19T12:28:20;26.40;53.80
76172;DHT22;64929;51.178;4.138;2023-06-19T12:30:48;26.50;54.40
76172;DHT22;64929;51.178;4.138;2023-06-19T12:33:17;26.30;54.40
76172;DHT22;64929;51.178;4.138;2023-06-19T12:35:44;26.10;53.70
76172;DHT22;64929;51.178;4.138;2023-06-19T12:38:10;26.10;53.90
76172;DHT22;64929;51.178;4.138;2023-06-19T12:40:39;26.20;55.40
76172;DHT22;64929;51.178;4.138;2023-06-19T12:43:05;26.30;55.70
76172;DHT22;64929;51.178;4.138;2023-06-19T12:45:31;26.60;53.30
76172;DHT22;64929;51.178;4.138;2023-06-19T12:47:57;26.60;53.70
76172;DHT22;64929;51.178;4.138;2023-06-19T12:50:23;26.40;53.40
76172;DHT22;64929;51.178;4.138;2023-06-19T12:52:50;26.60;55.10
76172;DHT22;64929;51.178;4.138;2023-06-19T12:55:15;26.70;54.80
76172;DHT22;64929;51.178;4.138;2023-06-19T12:57:41;26.40;54.80
76172;DHT22;64929;51.178;4.138;2023-06-19T13:00:11;26.70;53.60
76172;DHT22;64929;51.178;4.138;2023-06-19T13:02:38;26.80;53.00
76172;DHT22;64929;51.178;4.138;2023-06-19T13:05:06;27.00;53.50
76172;DHT22;64929;51.178;4.138;2023-06-19T13:07:31;26.90;53.80
76172;DHT22;64929;51.178;4.138;2023-06-19T13:09:58;26.90;54.40
76172;DHT22;64929;51.178;4.138;2023-06-19T13:12:24;27.00;53.70
76172;DHT22;64929;51.178;4.138;2023-06-19T13:14:49;27.10;52.70
76172;DHT22;64929;51.178;4.138;2023-06-19T13:17:15;27.00;53.60
76172;DHT22;64929;51.178;4.138;2023-06-19T13:19:40;27.50;54.10
76172;DHT22;64929;51.178;4.138;2023-06-19T13:22:06;28.30;50.20
76172;DHT22;64929;51.178;4.138;2023-06-19T13:24:32;28.60;49.10
76172;DHT22;64929;51.178;4.138;2023-06-19T13:26:58;28.50;47.60
76172;DHT22;64929;51.178;4.138;2023-06-19T13:29:24;27.90;48.90
76172;DHT22;64929;51.178;4.138;2023-06-19T13:31:49;27.80;50.00
76172;DHT22;64929;51.178;4.138;2023-06-19T13:34:15;27.80;49.70
76172;DHT22;64929;51.178;4.138;2023-06-19T13:36:41;27.90;49.90
76172;DHT22;64929;51.178;4.138;2023-06-19T13:39:07;28.40;48.90
76172;DHT22;64929;51.178;4.138;2023-06-19T13:41:33;29.10;49.80
76172;DHT22;64929;51.178;4.138;2023-06-19T13:44:00;30.10;46.80
76172;DHT22;64929;51.178;4.138;2023-06-19T13:46:25;31.40;45.50
76172;DHT22;64929;51.178;4.138;2023-06-19T13:48:51;32.20;44.20
76172;DHT22;64929;51.178;4.138;2023-06-19T13:51:18;31.80;41.70
76172;DHT22;64929;51.178;4.138;2023-06-19T13:53:44;31.50;43.80
76172;DHT22;64929;51.178;4.138;2023-06-19T13:56:11;32.60;43.60
76172;DHT22;64929;51.178;4.138;2023-06-19T13:58:37;32.10;41.80
76172;DHT22;64929;51.178;4.138;2023-06-19T14:01:02;31.70;42.10
76172;DHT22;64929;51.178;4.138;2023-06-19T14:03:28;30.80;43.60
76172;DHT22;64929;51.178;4.138;2023-06-19T14:05:54;30.40;44.40
76172;DHT22;64929;51.178;4.138;2023-06-19T14:08:20;30.70;44.60
76172;DHT22;64929;51.178;4.138;2023-06-19T14:10:46;31.80;43.70
76172;DHT22;64929;51.178;4.138;2023-06-19T14:13:12;33.40;42.10
76172;DHT22;64929;51.178;4.138;2023-06-19T14:15:37;34.70;39.30
76172;DHT22;64929;51.178;4.138;2023-06-19T14:18:03;34.60;37.70
76172;DHT22;64929;51.178;4.138;2023-06-19T14:20:29;34.80;37.10
76172;DHT22;64929;51.178;4.138;2023-06-19T14:22:54;35.20;37.10
76172;DHT22;64929;51.178;4.138;2023-06-19T14:25:20;36.60;35.50
76172;DHT22;64929;51.178;4.138;2023-06-19T14:27:46;37.30;35.20
76172;DHT22;64929;51.178;4.138;2023-06-19T14:30:12;37.50;34.10
76172;DHT22;64929;51.178;4.138;2023-06-19T14:32:38;37.80;33.80
76172;DHT22;64929;51.178;4.138;2023-06-19T14:35:04;38.50;32.90
76172;DHT22;64929;51.178;4.138;2023-06-19T14:37:30;38.70;32.60
76172;DHT22;64929;51.178;4.138;2023-06-19T14:39:56;37.90;32.50
76172;DHT22;64929;51.178;4.138;2023-06-19T14:42:22;39.10;32.50
76172;DHT22;64929;51.178;4.138;2023-06-19T14:44:47;39.40;32.30
76172;DHT22;64929;51.178;4.138;2023-06-19T14:47:13;39.80;31.60
76172;DHT22;64929;51.178;4.138;2023-06-19T14:49:39;39.00;31.80
76172;DHT22;64929;51.178;4.138;2023-06-19T14:52:05;38.80;32.10
76172;DHT22;64929;51.178;4.138;2023-06-19T14:54:31;37.30;33.00
76172;DHT22;64929;51.178;4.138;2023-06-19T14:56:57;35.90;34.60
76172;DHT22;64929;51.178;4.138;2023-06-19T14:59:22;34.40;35.50
76172;DHT22;64929;51.178;4.138;2023-06-19T15:01:48;33.30;37.60
76172;DHT22;64929;51.178;4.138;2023-06-19T15:04:14;32.50;37.50
76172;DHT22;64929;51.178;4.138;2023-06-19T15:06:39;31.60;40.20
76172;DHT22;64929;51.178;4.138;2023-06-19T15:09:05;31.60;39.90
76172;DHT22;64929;51.178;4.138;2023-06-19T15:11:31;31.10;42.20
76172;DHT22;64929;51.178;4.138;2023-06-19T15:13:56;31.30;40.70
76172;DHT22;64929;51.178;4.138;2023-06-19T15:16:22;31.40;39.00
76172;DHT22;64929;51.178;4.138;2023-06-19T15:18:51;32.30;39.80
76172;DHT22;64929;51.178;4.138;2023-06-19T15:21:17;33.10;39.10
76172;DHT22;64929;51.178;4.138;2023-06-19T15:23:43;31.90;39.00
76172;DHT22;64929;51.178;4.138;2023-06-19T15:26:08;32.50;39.00
76172;DHT22;64929;51.178;4.138;2023-06-19T15:28:35;33.30;37.90
76172;DHT22;64929;51.178;4.138;2023-06-19T15:31:05;34.30;37.10
76172;DHT22;64929;51.178;4.138;2023-06-19T15:33:30;34.60;36.70